Time;durP1;ratioP1;P1;durP2;ratioP2;P2;SDS_P1;SDS_P2;PMS_P1;PMS_P2;Temp;Humidity;BMP_temperature;BMP_pressure;BME280_temperature;BME280_humidity;BME280_pressure;Samples;Min_cycle;Max_cycle;Signal;HPM_P1;HPM_P2
2023/04/11 00:02:26;;;;;;;29.25;20.00;;;;;;;5.72;100.00;92874.09;5048048;28;20091;-69
2023/04/11 00:04:53;;;;;;;28.00;20.45;;;;;;;5.73;100.00;92870.56;5048493;28;20057;-69
2023/04/11 00:07:20;;;;;;;28.83;19.92;;;;;;;5.72;100.00;92869.81;5048498;28;20053;-69
2023/04/11 00:09:47;;;;;;;23.27;17.20;;;;;;;5.72;100.00;92862.16;5048227;28;20099;-69
2023/04/11 00:12:13;;;;;;;26.27;19.05;;;;;;;5.72;100.00;92866.47;5048282;28;20047;-69
2023/04/11 00:14:44;;;;;;;28.42;19.80;;;;;;;5.72;100.00;92864.72;5047769;28;20041;-69
2023/04/11 00:17:11;;;;;;;23.70;18.25;;;;;;;5.72;100.00;92861.34;5047646;28;20758;-69
2023/04/11 00:19:39;;;;;;;26.52;18.00;;;;;;;5.74;100.00;92865.28;5048141;28;20202;-69
2023/04/11 00:22:08;;;;;;;22.50;16.40;;;;;;;5.73;100.00;92855.28;5035768;28;20106;-69
2023/04/11 00:24:35;;;;;;;25.40;18.50;;;;;;;5.65;100.00;92863.88;5041624;28;20088;-69
2023/04/11 00:27:20;;;;;;;22.55;16.77;;;;;;;5.64;100.00;92851.34;5048166;28;20080;-70
2023/04/11 00:29:47;;;;;;;23.00;17.08;;;;;;;5.72;100.00;92858.81;5043495;28;20490;-69
2023/04/11 00:32:14;;;;;;;23.15;16.27;;;;;;;5.73;100.00;92857.84;5028262;28;20049;-70
2023/04/11 00:34:42;;;;;;;25.02;17.00;;;;;;;5.69;100.00;92854.09;5028144;28;20045;-70
2023/04/11 00:37:09;;;;;;;24.67;16.65;;;;;;;5.46;100.00;92822.81;5028112;28;20056;-70
2023/04/11 00:39:37;;;;;;;28.33;17.67;;;;;;;5.67;100.00;92856.03;5027611;28;20045;-70
2023/04/11 00:42:05;;;;;;;25.30;17.20;;;;;;;5.63;100.00;92848.00;5041118;28;20059;-70
2023/04/11 00:44:32;;;;;;;27.25;18.13;;;;;;;5.60;100.00;92841.50;5047790;28;20152;-70
2023/04/11 00:47:02;;;;;;;25.23;17.38;;;;;;;5.59;100.00;92837.38;5048047;28;20049;-70
2023/04/11 00:49:30;;;;;;;28.73;18.65;;;;;;;5.58;100.00;92848.56;5047662;28;20367;-70
2023/04/11 00:51:59;;;;;;;27.25;19.45;;;;;;;5.57;100.00;92841.09;5047691;28;20059;-70
2023/04/11 00:54:28;;;;;;;27.08;19.10;;;;;;;5.54;100.00;92849.91;5047494;28;20053;-70
2023/04/11 00:56:57;;;;;;;26.30;18.60;;;;;;;5.40;100.00;92827.84;5033261;28;20069;-70
2023/04/11 00:59:24;;;;;;;27.55;18.60;;;;;;;5.47;100.00;92838.91;5027774;28;20045;-70
2023/04/11 01:01:51;;;;;;;21.42;16.02;;;;;;;5.48;100.00;92846.31;5029327;28;20092;-70
2023/04/11 01:04:18;;;;;;;22.70;16.75;;;;;;;5.45;100.00;92846.72;5047358;28;20068;-70
2023/04/11 01:06:48;;;;;;;20.85;15.82;;;;;;;5.31;100.00;92845.03;5047458;28;20045;-70
2023/04/11 01:09:17;;;;;;;20.95;16.00;;;;;;;5.12;100.00;92841.38;5046888;28;20493;-70
2023/04/11 01:11:44;;;;;;;20.92;15.45;;;;;;;4.93;100.00;92839.31;5047350;28;20175;-70
2023/04/11 01:14:11;;;;;;;21.75;16.25;;;;;;;5.04;100.00;92830.38;5047388;28;20048;-70
2023/04/11 01:16:38;;;;;;;21.58;15.98;;;;;;;5.00;100.00;92829.16;5047394;28;20111;-70
2023/04/11 01:19:06;;;;;;;25.75;17.75;;;;;;;4.91;100.00;92825.97;5047319;28;20599;-70
2023/04/11 01:21:35;;;;;;;23.35;17.73;;;;;;;4.97;100.00;92824.47;5047239;28;20048;-70
2023/04/11 01:24:03;;;;;;;22.92;16.30;;;;;;;4.78;100.00;92826.66;5047631;28;20076;-70
2023/04/11 01:26:30;;;;;;;19.33;14.70;;;;;;;4.62;100.00;92819.25;5053911;28;20202;-70
2023/04/11 01:28:57;;;;;;;20.50;14.80;;;;;;;4.64;100.00;92819.88;5053985;28;20044;-70
2023/04/11 01:31:24;;;;;;;21.05;14.98;;;;;;;4.71;100.00;92820.72;5053503;28;20127;-70
2023/04/11 01:33:51;;;;;;;21.40;16.38;;;;;;;4.66;100.00;92825.56;5053948;28;20091;-70
2023/04/11 01:36:17;;;;;;;20.23;14.95;;;;;;;4.63;100.00;92825.94;5037872;28;20049;-69
2023/04/11 01:38:44;;;;;;;20.27;15.57;;;;;;;4.66;100.00;92818.75;5033430;28;20080;-69
2023/04/11 01:41:13;;;;;;;19.77;14.48;;;;;;;4.68;100.00;92823.66;5033593;28;20106;-69
2023/04/11 01:43:40;;;;;;;20.83;14.70;;;;;;;4.72;100.00;92821.53;5034118;28;20096;-69
2023/04/11 01:46:07;;;;;;;20.40;15.00;;;;;;;4.69;100.00;92820.13;5035233;28;20053;-69
2023/04/11 01:48:34;;;;;;;20.70;15.05;;;;;;;4.57;100.00;92816.50;5045598;28;20060;-70
2023/04/11 01:51:01;;;;;;;21.70;15.35;;;;;;;4.61;100.00;92813.41;5034323;28;20050;-70
2023/04/11 01:53:28;;;;;;;22.42;15.15;;;;;;;4.50;100.00;92811.34;5033290;28;20045;-70
2023/04/11 01:55:55;;;;;;;21.38;15.25;;;;;;;4.47;100.00;92809.97;5033558;28;20099;-70
2023/04/11 01:58:23;;;;;;;19.85;15.50;;;;;;;4.33;100.00;92809.03;5033756;28;20041;-70
2023/04/11 02:00:49;;;;;;;21.48;16.00;;;;;;;4.30;100.00;92801.75;5033769;28;20449;-70
2023/04/11 02:03:19;;;;;;;23.50;17.30;;;;;;;4.44;100.00;92801.91;5033573;28;20053;-70
2023/04/11 02:05:46;;;;;;;30.27;20.45;;;;;;;4.28;100.00;92783.38;5033767;28;20053;-70
2023/04/11 02:08:13;;;;;;;33.10;21.02;;;;;;;4.36;100.00;92801.03;5033102;28;20052;-69
2023/04/11 02:10:46;;;;;;;25.77;18.23;;;;;;;4.38;100.00;92805.94;5033754;28;20049;-69
2023/04/11 02:13:13;;;;;;;24.92;17.45;;;;;;;4.42;100.00;92799.53;5046614;28;21235;-70
2023/04/11 02:15:41;;;;;;;25.00;17.23;;;;;;;4.35;100.00;92807.09;5034011;28;20045;-70
2023/04/11 02:18:08;;;;;;;25.05;16.85;;;;;;;4.47;100.00;92799.78;5033394;28;20095;-69
2023/04/11 02:20:36;;;;;;;24.38;14.95;;;;;;;4.41;100.00;92808.91;5040867;28;20040;-69
2023/04/11 02:23:03;;;;;;;22.00;14.57;;;;;;;4.26;100.00;92813.28;5053309;28;20041;-70
2023/04/11 02:25:30;;;;;;;24.35;16.15;;;;;;;4.20;100.00;92807.16;5053383;28;20131;-70
2023/04/11 02:27:56;;;;;;;20.88;14.90;;;;;;;4.18;100.00;92808.31;5053051;28;20682;-70
2023/04/11 02:30:23;;;;;;;25.88;15.75;;;;;;;4.18;100.00;92801.47;5049048;28;20127;-70
2023/04/11 02:32:51;;;;;;;22.50;15.77;;;;;;;4.27;100.00;92802.16;5033307;28;20045;-70
2023/04/11 02:35:19;;;;;;;24.70;15.98;;;;;;;4.21;100.00;92795.25;5032726;28;20077;-70
2023/04/11 02:37:45;;;;;;;22.30;16.45;;;;;;;4.18;100.00;92806.56;5029562;28;20490;-69
2023/04/11 02:40:12;;;;;;;28.65;16.40;;;;;;;4.08;100.00;92804.28;5030378;28;20049;-70
2023/04/11 02:42:41;;;;;;;20.52;15.68;;;;;;;4.06;100.00;92806.22;5030057;28;20095;-69
2023/04/11 02:45:10;;;;;;;21.15;15.98;;;;;;;3.99;100.00;92798.53;5030103;28;20132;-70
2023/04/11 02:47:37;;;;;;;23.75;17.05;;;;;;;4.05;100.00;92794.50;5045978;28;20128;-70
2023/04/11 02:50:06;;;;;;;22.65;17.42;;;;;;;4.18;100.00;92804.00;5050038;28;20045;-69
2023/04/11 02:52:33;;;;;;;24.52;17.73;;;;;;;4.08;100.00;92803.50;5050111;28;20451;-69
2023/04/11 02:55:00;;;;;;;21.73;16.55;;;;;;;4.06;100.00;92793.53;5050044;28;21109;-69
2023/04/11 02:57:26;;;;;;;23.15;16.25;;;;;;;4.11;100.00;92792.97;5049802;28;20087;-70
2023/04/11 02:59:53;;;;;;;21.25;15.50;;;;;;;4.13;100.00;92798.69;5049562;28;20114;-69
2023/04/11 03:02:21;;;;;;;22.58;15.43;;;;;;;4.14;100.00;92795.97;5050107;28;20142;-69
2023/04/11 03:04:48;;;;;;;21.35;15.75;;;;;;;4.21;100.00;92790.94;5049310;28;20424;-69
2023/04/11 03:07:16;;;;;;;22.80;16.40;;;;;;;4.27;100.00;92794.50;5049637;28;20570;-70
2023/04/11 03:09:43;;;;;;;20.15;15.25;;;;;;;4.32;100.00;92797.31;5033426;28;20085;-69
2023/04/11 03:12:10;;;;;;;22.38;16.13;;;;;;;4.41;100.00;92792.88;5036239;28;20081;-69
2023/04/11 03:14:36;;;;;;;22.48;15.65;;;;;;;4.53;100.00;92793.16;5047517;28;20049;-69
2023/04/11 03:17:03;;;;;;;22.13;15.15;;;;;;;4.62;100.00;92801.47;5039102;28;20131;-69
2023/04/11 03:19:30;;;;;;;21.80;15.48;;;;;;;4.72;100.00;92785.91;5029317;28;20049;-70
2023/04/11 03:21:57;;;;;;;24.95;16.42;;;;;;;4.80;100.00;92795.94;5048657;28;20107;-69
2023/04/11 03:24:25;;;;;;;23.00;16.42;;;;;;;4.80;100.00;92806.13;5049464;28;20813;-69
2023/04/11 03:26:51;;;;;;;24.45;16.73;;;;;;;4.79;100.00;92795.16;5029504;28;20053;-69
2023/04/11 03:29:18;;;;;;;21.77;16.17;;;;;;;4.68;100.00;92795.66;5029331;28;20095;-69
2023/04/11 03:31:45;;;;;;;21.85;16.25;;;;;;;4.55;100.00;92796.34;5029332;28;20104;-69
2023/04/11 03:34:11;;;;;;;24.58;16.63;;;;;;;4.63;100.00;92803.06;5029105;28;20045;-69
2023/04/11 03:36:38;;;;;;;23.15;17.08;;;;;;;4.51;100.00;92803.53;5029187;28;20116;-69
2023/04/11 03:39:05;;;;;;;23.55;16.67;;;;;;;4.48;100.00;92803.91;5029203;28;20645;-69
2023/04/11 03:41:33;;;;;;;23.90;16.92;;;;;;;4.33;100.00;92803.16;5029847;28;20103;-70
2023/04/11 03:44:00;;;;;;;22.35;16.02;;;;;;;4.32;100.00;92789.69;5041979;28;20150;-70
2023/04/11 03:46:27;;;;;;;21.58;15.75;;;;;;;4.38;100.00;92796.56;5029433;28;20053;-70
2023/04/11 03:48:53;;;;;;;21.63;15.60;;;;;;;4.28;100.00;92794.34;5027946;28;20382;-69
2023/04/11 03:51:20;;;;;;;23.10;16.75;;;;;;;4.22;100.00;92792.50;5029238;28;20045;-69
2023/04/11 03:53:47;;;;;;;24.65;17.23;;;;;;;4.15;100.00;92789.09;5029102;28;20414;-69
2023/04/11 03:56:14;;;;;;;22.45;16.65;;;;;;;4.09;100.00;92790.63;5029175;28;20401;-69
2023/04/11 03:58:42;;;;;;;23.20;15.98;;;;;;;4.09;100.00;92790.63;5028750;28;20059;-69
2023/04/11 04:01:09;;;;;;;24.65;17.60;;;;;;;4.06;100.00;92797.81;5028640;28;20490;-69
2023/04/11 04:03:36;;;;;;;23.52;16.95;;;;;;;4.05;100.00;92789.41;5028301;28;20557;-69
2023/04/11 04:06:03;;;;;;;24.48;16.75;;;;;;;4.05;100.00;92783.53;5028831;28;20143;-69
2023/04/11 04:08:29;;;;;;;22.65;16.30;;;;;;;3.99;100.00;92797.75;5028930;28;20045;-69
2023/04/11 04:10:56;;;;;;;23.15;17.48;;;;;;;4.00;100.00;92797.59;5028871;28;20340;-69
2023/04/11 04:13:23;;;;;;;23.27;17.17;;;;;;;4.00;100.00;92797.59;5028800;28;20053;-69
2023/04/11 04:15:51;;;;;;;24.35;16.63;;;;;;;4.08;100.00;92790.81;5028527;28;20045;-69
2023/04/11 04:18:18;;;;;;;25.15;18.33;;;;;;;4.13;100.00;92791.81;5028388;28;20554;-69
2023/04/11 04:20:45;;;;;;;24.88;18.45;;;;;;;4.15;100.00;92791.66;5037363;28;20483;-69
2023/04/11 04:23:13;;;;;;;25.92;18.70;;;;;;;4.22;100.00;92789.94;5048207;28;20040;-71
2023/04/11 04:25:40;;;;;;;23.67;17.48;;;;;;;4.15;100.00;92786.56;5048197;28;20099;-69
2023/04/11 04:28:08;;;;;;;25.05;18.95;;;;;;;4.16;100.00;92783.06;5048141;28;20045;-69
2023/04/11 04:30:36;;;;;;;27.27;19.40;;;;;;;4.11;100.00;92792.97;5047722;28;20053;-69
2023/04/11 04:33:04;;;;;;;26.00;18.33;;;;;;;4.13;100.00;92791.06;5047433;28;20053;-70
2023/04/11 04:35:31;;;;;;;27.92;20.15;;;;;;;4.13;100.00;92796.13;5047959;28;20049;-69
2023/04/11 04:38:04;;;;;;;27.58;20.05;;;;;;;4.09;100.00;92790.63;5047717;28;20049;-69
2023/04/11 04:40:31;;;;;;;32.90;21.13;;;;;;;4.14;100.00;92795.97;5028973;28;20045;-69
2023/04/11 04:42:58;;;;;;;25.55;18.70;;;;;;;3.99;100.00;92798.53;5027718;28;20042;-69
2023/04/11 04:45:25;;;;;;;33.30;21.08;;;;;;;3.99;100.00;92795.22;5029444;28;20042;-70
2023/04/11 04:47:52;;;;;;;29.40;19.15;;;;;;;3.99;100.00;92792.69;5044543;28;20063;-70
2023/04/11 04:50:20;;;;;;;24.48;18.10;;;;;;;3.98;100.00;92798.72;5048018;28;20052;-70
2023/04/11 04:52:47;;;;;;;28.58;21.35;;;;;;;4.04;100.00;92790.38;5047815;28;20045;-69
2023/04/11 04:55:14;;;;;;;25.52;19.23;;;;;;;4.01;100.00;92795.81;5047695;28;20107;-69
2023/04/11 04:57:41;;;;;;;31.50;20.90;;;;;;;3.99;100.00;92798.53;5047312;28;20045;-69
2023/04/11 05:00:10;;;;;;;35.95;22.83;;;;;;;4.03;100.00;92798.94;5047031;28;20048;-69
2023/04/11 05:02:39;;;;;;;31.40;22.38;;;;;;;4.20;100.00;92796.19;5047439;28;20095;-69
2023/04/11 05:05:07;;;;;;;29.15;20.23;;;;;;;4.18;100.00;92798.13;5047135;28;20516;-69
2023/04/11 05:07:35;;;;;;;26.70;19.70;;;;;;;4.19;100.00;92797.97;5047220;28;20893;-69
2023/04/11 05:10:02;;;;;;;25.15;19.25;;;;;;;4.13;100.00;92796.91;5047237;28;20541;-69
2023/04/11 05:12:28;;;;;;;26.60;18.98;;;;;;;4.17;100.00;92804.19;5041921;28;20056;-69
2023/04/11 05:14:55;;;;;;;25.98;18.40;;;;;;;4.10;100.00;92794.75;5041985;28;20045;-70
2023/04/11 05:17:22;;;;;;;35.55;24.08;;;;;;;4.21;100.00;92790.16;5046945;28;20055;-70
2023/04/11 05:19:49;;;;;;;25.58;18.45;;;;;;;4.08;100.00;92791.56;5046951;28;20412;-69
2023/04/11 05:22:16;;;;;;;29.67;21.15;;;;;;;4.21;100.00;92796.00;5047051;28;20045;-69
2023/04/11 05:24:44;;;;;;;32.90;23.25;;;;;;;4.27;100.00;92797.81;5046897;28;20463;-69
2023/04/11 05:27:12;;;;;;;31.50;23.85;;;;;;;4.19;100.00;92790.34;5046999;28;20498;-70
2023/04/11 05:29:38;;;;;;;28.27;21.10;;;;;;;4.30;100.00;92794.13;5046520;28;20049;-70
2023/04/11 05:32:05;;;;;;;28.02;20.77;;;;;;;4.24;100.00;92797.41;5047177;28;20091;-69
2023/04/11 05:34:33;;;;;;;28.02;20.58;;;;;;;4.16;100.00;92798.31;5046892;28;20049;-70
2023/04/11 05:37:00;;;;;;;27.85;19.35;;;;;;;4.22;100.00;92800.13;5046827;28;20060;-70
2023/04/11 05:39:26;;;;;;;30.77;22.85;;;;;;;4.37;100.00;92800.09;5046998;28;20056;-69
2023/04/11 05:41:55;;;;;;;26.85;19.40;;;;;;;4.41;100.00;92785.25;5047233;28;20045;-69
2023/04/11 05:44:22;;;;;;;27.25;19.73;;;;;;;4.39;100.00;92793.06;5046895;28;20455;-69
2023/04/11 05:46:49;;;;;;;25.40;18.98;;;;;;;4.34;100.00;92790.28;5046882;28;20093;-69
2023/04/11 05:49:15;;;;;;;26.00;19.25;;;;;;;4.28;100.00;92780.84;5046639;28;20197;-69
2023/04/11 05:51:42;;;;;;;24.60;17.88;;;;;;;4.37;100.00;92784.03;5047202;28;20061;-69
2023/04/11 05:54:09;;;;;;;25.52;18.05;;;;;;;4.46;100.00;92784.69;5046531;28;20452;-69
2023/04/11 05:56:38;;;;;;;22.88;17.52;;;;;;;4.55;100.00;92788.69;5046552;28;20055;-69
2023/04/11 05:59:06;;;;;;;24.05;18.50;;;;;;;4.57;100.00;92780.91;5046319;28;20084;-69
2023/04/11 06:01:33;;;;;;;23.35;17.35;;;;;;;4.44;100.00;92774.69;5047024;28;20106;-69
2023/04/11 06:04:00;;;;;;;23.45;18.35;;;;;;;4.51;100.00;92779.84;5046527;28;20049;-70
2023/04/11 06:06:27;;;;;;;22.60;17.23;;;;;;;4.62;100.00;92774.28;5046734;28;20092;-69
2023/04/11 06:08:54;;;;;;;21.48;15.93;;;;;;;4.58;100.00;92772.28;5046526;28;20111;-69
2023/04/11 06:11:21;;;;;;;22.58;16.83;;;;;;;4.53;100.00;92773.63;5047797;28;20103;-69
2023/04/11 06:13:47;;;;;;;23.73;18.80;;;;;;;4.59;100.00;92774.66;5050350;28;20908;-69
2023/04/11 06:16:16;;;;;;;28.08;21.52;;;;;;;4.76;100.00;92772.63;5050870;28;20048;-70
2023/04/11 06:18:42;;;;;;;25.33;19.63;;;;;;;4.90;100.00;92770.97;5050587;28;20049;-69
2023/04/11 06:21:09;;;;;;;29.83;22.52;;;;;;;4.99;100.00;92773.38;5050588;28;20560;-69
2023/04/11 06:23:36;;;;;;;20.95;16.58;;;;;;;5.07;100.00;92773.22;5050466;28;20122;-69
2023/04/11 06:26:03;;;;;;;21.70;16.77;;;;;;;5.17;100.00;92773.69;5050573;28;20053;-69
2023/04/11 06:28:29;;;;;;;23.25;17.60;;;;;;;5.37;100.00;92767.88;5049837;28;20545;-69
2023/04/11 06:30:56;;;;;;;21.90;16.52;;;;;;;5.51;100.00;92763.66;5050671;28;20053;-69
2023/04/11 06:33:24;;;;;;;17.08;14.05;;;;;;;5.57;100.00;92764.66;5050452;28;20045;-69
2023/04/11 06:35:51;;;;;;;22.77;17.02;;;;;;;5.52;100.00;92762.69;5035868;28;20053;-69
2023/04/11 06:38:17;;;;;;;23.23;17.33;;;;;;;5.57;100.00;92759.56;5038352;28;20539;-69
2023/04/11 06:40:44;;;;;;;30.33;21.42;;;;;;;5.71;100.00;92757.84;5050200;28;20055;-69
2023/04/11 06:43:11;;;;;;;22.15;16.67;;;;;;;6.00;100.00;92749.13;5049952;28;20053;-69
2023/04/11 06:45:38;;;;;;;21.38;16.85;;;;;;;6.09;100.00;92754.06;5049906;28;20048;-69
2023/04/11 06:48:05;;;;;;;23.83;17.17;;;;;;;6.15;100.00;92753.28;5049877;28;20489;-70
2023/04/11 06:50:33;;;;;;;21.52;16.77;;;;;;;6.06;100.00;92762.13;5049374;28;20106;-70
2023/04/11 06:53:00;;;;;;;17.83;14.45;;;;;;;5.83;100.00;92761.41;5039520;28;20052;-70
2023/04/11 06:55:26;;;;;;;22.98;16.85;;;;;;;5.74;100.00;92760.81;5036802;28;20063;-70
2023/04/11 06:57:53;;;;;;;15.55;12.60;;;;;;;5.72;100.00;92762.78;5049966;28;20902;-70
2023/04/11 07:00:21;;;;;;;16.20;12.82;;;;;;;5.39;100.00;92714.22;5049882;28;20078;-70
2023/04/11 07:02:48;;;;;;;16.55;12.27;;;;;;;5.61;100.00;92759.00;5049893;28;20049;-70
2023/04/11 07:05:15;;;;;;;35.58;21.08;;;;;;;5.58;100.00;92754.28;5049636;28;20053;-70
2023/04/11 07:07:43;;;;;;;16.58;12.82;;;;;;;5.81;100.00;92757.50;5049840;28;20056;-70
2023/04/11 07:10:10;;;;;;;12.63;10.32;;;;;;;5.92;100.00;92763.81;5049497;28;20044;-70
2023/04/11 07:12:36;;;;;;;15.38;12.05;;;;;;;6.00;100.00;92738.13;5049014;28;20044;-70
2023/04/11 07:15:04;;;;;;;17.08;13.27;;;;;;;6.07;100.00;92740.72;5049320;28;20089;-69
2023/04/11 07:17:31;;;;;;;16.00;12.02;;;;;;;6.53;100.00;92755.31;5049209;28;20061;-69
2023/04/11 07:19:57;;;;;;;14.98;11.98;;;;;;;6.51;100.00;92762.38;5049320;28;20053;-70
2023/04/11 07:22:24;;;;;;;15.48;11.80;;;;;;;6.63;100.00;92764.34;5049234;28;20103;-70
2023/04/11 07:24:54;;;;;;;14.23;10.93;;;;;;;6.71;100.00;92765.91;5048799;28;20565;-70
2023/04/11 07:27:22;;;;;;;24.77;15.95;;;;;;;6.64;100.00;92776.13;5049170;28;20390;-70
2023/04/11 07:29:48;;;;;;;28.52;16.30;;;;;;;6.60;100.00;92767.28;5049097;28;20044;-70
2023/04/11 07:32:15;;;;;;;11.82;9.70;;;;;;;6.51;100.00;92772.59;5048781;28;20037;-70
2023/04/11 07:34:42;;;;;;;11.57;8.88;;;;;;;6.41;100.00;92769.63;5048998;28;20049;-70
2023/04/11 07:37:08;;;;;;;11.80;8.88;;;;;;;6.50;100.00;92760.00;5049064;28;20114;-70
2023/04/11 07:39:35;;;;;;;17.65;12.68;;;;;;;6.55;100.00;92752.56;5048507;28;20099;-70
2023/04/11 07:42:03;;;;;;;12.52;9.82;;;;;;;6.66;100.00;92759.63;5048959;28;20413;-70
2023/04/11 07:44:30;;;;;;;15.73;11.65;;;;;;;6.85;100.00;92754.69;5048855;28;20102;-70
2023/04/11 07:46:57;;;;;;;12.93;9.52;;;;;;;6.78;100.00;92749.63;5048370;28;20099;-70
2023/04/11 07:49:24;;;;;;;12.25;9.23;;;;;;;6.75;100.00;92751.78;5048813;28;20045;-70
2023/04/11 07:51:51;;;;;;;11.93;8.50;;;;;;;6.94;100.00;92750.97;5048326;28;20045;-70
2023/04/11 07:54:17;;;;;;;11.98;9.68;;;;;;;7.28;100.00;92747.56;5047981;28;20052;-70
2023/04/11 07:56:44;;;;;;;17.40;11.48;;;;;;;7.52;100.00;92748.69;5048376;28;20394;-70
2023/04/11 07:59:14;;;;;;;14.85;9.75;;;;;;;7.27;100.00;92753.69;5048325;28;20056;-70
2023/04/11 08:01:41;;;;;;;10.73;7.47;;;;;;;7.01;100.00;92748.41;5048168;28;20036;-70
2023/04/11 08:04:08;;;;;;;12.43;8.80;;;;;;;7.25;100.00;92753.06;5048413;28;20053;-70
2023/04/11 08:06:35;;;;;;;12.68;8.80;;;;;;;7.26;100.00;92747.78;5047943;28;20075;-70
2023/04/11 08:09:02;;;;;;;15.27;10.15;;;;;;;7.12;100.00;92741.13;5047968;28;20045;-70
2023/04/11 08:11:29;;;;;;;14.60;10.65;;;;;;;7.38;100.00;92724.94;5047771;28;20501;-70
2023/04/11 08:13:56;;;;;;;14.57;9.95;;;;;;;7.38;100.00;92721.59;5048321;28;20136;-70
2023/04/11 08:16:24;;;;;;;9.95;8.02;;;;;;;7.57;100.00;92723.31;5047502;28;20048;-70
2023/04/11 08:18:51;;;;;;;10.10;8.10;;;;;;;7.55;100.00;92722.72;5047904;28;20055;-70
2023/04/11 08:21:17;;;;;;;9.65;7.32;;;;;;;7.27;100.00;92713.56;5048042;28;20456;-71
2023/04/11 08:23:45;;;;;;;13.30;9.75;;;;;;;7.51;100.00;92720.78;5048137;28;20095;-70
2023/04/11 08:26:12;;;;;;;11.18;8.32;;;;;;;7.58;100.00;92717.22;5047698;28;20041;-70
2023/04/11 08:28:38;;;;;;;13.13;9.15;;;;;;;7.59;100.00;92712.91;5048231;28;20045;-70
2023/04/11 08:31:05;;;;;;;10.55;7.80;;;;;;;7.58;100.00;92711.31;5048134;28;20049;-70
2023/04/11 08:33:33;;;;;;;10.25;7.88;;;;;;;7.73;100.00;92716.94;5047480;28;20493;-70
2023/04/11 08:36:00;;;;;;;10.02;8.30;;;;;;;7.57;100.00;92707.19;5047639;28;20037;-70
2023/04/11 08:38:27;;;;;;;11.13;8.63;;;;;;;7.90;100.00;92701.13;5047805;28;20102;-70
2023/04/11 08:40:55;;;;;;;11.38;8.45;;;;;;;8.10;100.00;92698.44;5047863;28;20103;-70
2023/04/11 08:43:22;;;;;;;11.23;8.93;;;;;;;8.46;100.00;92690.34;5048022;28;20044;-70
2023/04/11 08:45:48;;;;;;;11.63;7.82;;;;;;;8.24;100.00;92695.81;5046394;28;20048;-70
2023/04/11 08:48:15;;;;;;;13.93;8.27;;;;;;;8.26;100.00;92692.06;5046754;28;20044;-70
2023/04/11 08:50:44;;;;;;;9.75;7.53;;;;;;;8.03;100.00;92682.34;5047196;28;20045;-70
2023/04/11 08:53:11;;;;;;;11.25;7.85;;;;;;;8.33;100.00;92675.88;5046470;28;20041;-70
2023/04/11 08:55:45;;;;;;;10.52;8.38;;;;;;;8.35;100.00;92682.34;5033609;28;20513;-70
2023/04/11 08:58:12;;;;;;;10.80;7.13;;;;;;;8.55;100.00;92674.53;5047173;28;20095;-70
2023/04/11 09:00:39;;;;;;;9.57;7.28;;;;;;;8.41;100.00;92642.31;5047258;28;20091;-70
2023/04/11 09:03:07;;;;;;;11.63;7.57;;;;;;;8.66;100.00;92682.53;5047431;28;20055;-70
2023/04/11 09:05:37;;;;;;;12.40;8.88;;;;;;;8.73;100.00;92674.75;5033976;28;20568;-70
2023/04/11 09:08:07;;;;;;;10.55;7.55;;;;;;;8.76;100.00;92669.22;5046552;28;20517;-71
2023/04/11 09:10:34;;;;;;;10.80;8.15;;;;;;;9.05;100.00;92669.53;5047498;28;20094;-70
2023/04/11 09:13:02;;;;;;;9.48;7.70;;;;;;;8.59;100.00;92658.75;5047186;28;20048;-70
2023/04/11 09:15:30;;;;;;;14.63;8.75;;;;;;;8.66;100.00;92662.81;5046936;28;20044;-70
2023/04/11 09:17:57;;;;;;;10.32;7.30;;;;;;;8.61;100.00;92664.44;5042817;28;20057;-70
2023/04/11 09:20:28;;;;;;;12.63;9.13;;;;;;;8.35;100.00;92656.75;5043453;28;20146;-70
2023/04/11 09:22:55;;;;;;;11.75;8.80;;;;;;;8.75;100.00;92660.00;5046175;28;20505;-70
2023/04/11 09:25:23;;;;;;;13.55;9.60;;;;;;;8.74;100.00;92656.63;5046723;28;20048;-70
2023/04/11 09:28:07;;;;;;;14.73;9.70;;;;;;;9.00;100.00;92652.25;5046998;28;20072;-71
2023/04/11 09:30:34;;;;;;;12.40;9.60;;;;;;;9.07;100.00;92637.59;5047068;28;20049;-70
2023/04/11 09:33:19;;;;;;;12.93;9.70;;;;;;;8.77;100.00;92632.38;5046527;28;20099;-70
2023/04/11 09:35:47;;;;;;;13.37;9.67;;;;;;;8.77;100.00;92645.97;5046564;28;20049;-70
2023/04/11 09:38:14;;;;;;;11.10;8.57;;;;;;;8.86;98.76;92625.19;5046788;28;20045;-70
2023/04/11 09:40:43;;;;;;;10.30;8.23;;;;;;;9.28;99.36;92625.34;5046891;28;20064;-70
2023/04/11 09:43:10;;;;;;;9.73;8.10;;;;;;;9.12;97.05;92629.25;5046757;28;20052;-70
2023/04/11 09:45:36;;;;;;;10.93;8.18;;;;;;;8.98;99.25;92622.72;5047785;28;20076;-70
2023/04/11 09:48:04;;;;;;;11.38;8.70;;;;;;;8.99;98.65;92621.72;5050146;28;20098;-70
2023/04/11 09:50:33;;;;;;;14.25;10.25;;;;;;;9.06;98.85;92617.28;5050253;28;20045;-70
2023/04/11 09:53:00;;;;;;;16.02;9.77;;;;;;;9.05;97.98;92585.78;5050616;28;20498;-70
2023/04/11 09:55:27;;;;;;;15.13;9.57;;;;;;;9.30;97.63;92604.63;5046391;28;20044;-70
2023/04/11 09:57:56;;;;;;;17.10;10.52;;;;;;;9.54;99.25;92602.91;5050435;28;20041;-70
2023/04/11 10:00:28;;;;;;;14.32;10.32;;;;;;;8.91;94.83;92562.09;5050746;28;20049;-70
2023/04/11 10:02:56;;;;;;;14.18;10.23;;;;;;;9.13;95.80;92558.28;5050793;28;20049;-70
2023/04/11 10:05:26;;;;;;;21.25;11.30;;;;;;;9.39;93.53;92602.53;5049906;28;20048;-70
2023/04/11 10:07:59;;;;;;;21.02;10.98;;;;;;;9.39;94.41;92592.28;5031585;28;20045;-71
2023/04/11 10:10:26;;;;;;;14.25;9.77;;;;;;;9.39;94.17;92559.72;5043918;28;20052;-71
2023/04/11 10:12:53;;;;;;;13.18;10.05;;;;;;;9.45;92.24;92570.91;5050343;28;20037;-70
2023/04/11 10:15:21;;;;;;;13.32;9.25;;;;;;;9.93;92.88;92581.25;5050258;28;20048;-71
2023/04/11 10:18:11;;;;;;;15.52;9.20;;;;;;;10.14;89.34;92588.44;5050548;28;20598;-71
2023/04/11 10:20:43;;;;;;;14.52;10.60;;;;;;;10.29;89.85;92590.56;5050152;28;20057;-71
2023/04/11 10:23:11;;;;;;;12.38;9.13;;;;;;;10.37;86.43;92580.97;5050254;28;20045;-70
2023/04/11 10:25:52;;;;;;;17.65;9.85;;;;;;;10.72;88.74;92569.91;5050021;28;20048;-71
2023/04/11 10:28:37;;;;;;;17.30;9.30;;;;;;;10.80;85.06;92569.53;5049733;28;20398;-71
2023/04/11 10:31:07;;;;;;;11.98;8.82;;;;;;;10.89;84.62;92566.66;5050272;28;20049;-71
2023/04/11 10:33:36;;;;;;;12.40;8.75;;;;;;;10.68;84.12;92561.88;5049586;28;20556;-70
2023/04/11 10:36:08;;;;;;;13.13;8.93;;;;;;;10.65;81.62;92548.72;5049697;28;20425;-71
2023/04/11 10:38:48;;;;;;;13.43;9.05;;;;;;;10.51;86.38;92561.78;5049905;28;20040;-71
2023/04/11 10:41:25;;;;;;;15.75;10.00;;;;;;;10.17;84.07;92561.53;5049719;28;20143;-71
2023/04/11 10:44:11;;;;;;;15.32;10.43;;;;;;;10.49;88.15;92553.53;5045999;28;20061;-71
2023/04/11 10:46:44;;;;;;;14.55;9.13;;;;;;;10.52;84.07;92547.94;5031283;28;20053;-71
2023/04/11 10:49:11;;;;;;;13.27;8.70;;;;;;;10.51;83.14;92555.88;5041756;28;20053;-71
2023/04/11 10:51:37;;;;;;;12.38;8.93;;;;;;;10.23;83.77;92567.59;5049703;28;20053;-71
2023/04/11 10:54:04;;;;;;;18.35;10.85;;;;;;;9.97;86.04;92549.03;5049435;28;20048;-71
2023/04/11 10:56:55;;;;;;;12.68;8.85;;;;;;;9.86;86.33;92551.34;5049586;28;20114;-71
2023/04/11 10:59:55;;;;;;;14.27;10.02;;;;;;;9.72;87.47;92555.91;5040493;28;20052;-70
2023/04/11 11:02:35;;;;;;;13.57;9.50;;;;;;;9.79;86.68;92537.88;5049432;28;20494;-71
2023/04/11 11:05:14;;;;;;;11.48;9.15;;;;;;;9.57;85.47;92540.16;5049743;28;20045;-71
2023/04/11 11:07:46;;;;;;;14.73;11.18;;;;;;;10.11;89.39;92535.00;5048876;28;20049;-71
2023/04/11 11:10:12;;;;;;;11.13;8.70;;;;;;;10.45;83.32;92531.88;5049159;28;20073;-71
2023/04/11 11:12:52;;;;;;;12.60;9.18;;;;;;;10.80;84.21;92520.75;5049048;28;20055;-71
2023/04/11 11:15:19;;;;;;;13.52;9.88;;;;;;;11.03;83.69;92515.78;5049168;28;20078;-71
2023/04/11 11:17:47;;;;;;;17.23;10.70;;;;;;;11.00;80.27;92521.34;5048814;28;20115;-71
2023/04/11 11:20:18;;;;;;;15.30;10.65;;;;;;;11.15;81.92;92508.78;5049181;28;20041;-71
2023/04/11 11:22:59;;;;;;;14.25;8.82;;;;;;;11.19;80.00;92527.09;5049239;28;20045;-71
2023/04/11 11:25:26;;;;;;;12.40;9.02;;;;;;;11.16;80.42;92527.56;5036907;28;20041;-71